Terminal Aerodrome Forecast
Issued by NWS

Home | Current Version | Previous Version | Text Only | Print | Product List | Glossary On
Versions: 1 2 3 4 5 6 7 8 9 10 11 12 13 14 15 16 17 18 19
000
FTAK31 PAJN 300540
TAFAJN
TAF
PAJN 300540Z 3006/0106 VRB03KT P6SM BKN160
     FM301100 08003KT P6SM OVC090
     FM301800 13008KT P6SM VCSH BKN060 OVC090
     FM302300 12008KT P6SM -SHRA SCT020 OVC040
     FM010400 10006KT P6SM -SHRA BKN020 OVC040=

USA.gov is the U.S. government's official web portal to all federal, state and local government web resources and services.